createdAt,value
2019-02-22T00:00:05.723Z,26.80
2019-02-22T00:05:11.194Z,26.60
2019-02-22T00:10:16.591Z,27.13
2019-02-22T00:15:22.013Z,28.53
2019-02-22T00:20:27.613Z,28.87
2019-02-22T00:25:33.139Z,28.23
2019-02-22T00:30:38.611Z,28.80
2019-02-22T00:35:44.075Z,29.07
2019-02-22T00:40:49.581Z,29.10
2019-02-22T00:45:55.004Z,26.63
2019-02-22T00:51:00.363Z,27.43
2019-02-22T00:56:05.779Z,28.00
2019-02-22T01:01:11.382Z,28.03
2019-02-22T01:06:16.917Z,28.50
2019-02-22T01:11:22.433Z,26.57
2019-02-22T01:16:28.080Z,26.03
2019-02-22T01:21:33.638Z,24.60
2019-02-22T01:26:39.328Z,27.80
2019-02-22T01:31:44.729Z,28.37
2019-02-22T01:36:50.248Z,29.30
2019-02-22T01:41:55.714Z,28.20
2019-02-22T01:47:01.252Z,28.67
2019-02-22T01:52:06.786Z,26.23
2019-02-22T01:57:12.281Z,29.50
2019-02-22T02:02:17.786Z,30.27
2019-02-22T02:07:23.420Z,30.60
2019-02-22T02:12:28.927Z,32.83
2019-02-22T02:17:34.417Z,32.53
2019-02-22T02:22:39.942Z,31.07
2019-02-22T02:27:45.420Z,33.07
2019-02-22T02:32:51.003Z,33.33
2019-02-22T02:37:56.412Z,32.60
2019-02-22T02:43:01.991Z,34.67
2019-02-22T02:48:07.479Z,35.13
2019-02-22T02:53:12.843Z,34.40
2019-02-22T02:58:18.298Z,33.80
2019-02-22T03:03:23.811Z,33.13
2019-02-22T03:08:33.574Z,33.57
2019-02-22T03:13:39.033Z,30.60
2019-02-22T03:18:44.738Z,32.20
2019-02-22T03:23:50.291Z,29.77
2019-02-22T03:28:55.675Z,29.67
2019-02-22T03:34:01.122Z,31.87
2019-02-22T03:39:07.727Z,29.50
2019-02-22T03:44:13.399Z,29.70
2019-02-22T03:49:18.904Z,29.97
2019-02-22T03:54:24.313Z,30.13
2019-02-22T03:59:29.702Z,32.63
2019-02-22T04:04:35.109Z,28.93
2019-02-22T04:09:40.647Z,31.13
2019-02-22T04:14:46.038Z,30.80
2019-02-22T04:19:51.655Z,30.73
2019-02-22T04:24:57.288Z,30.23
2019-02-22T04:30:02.769Z,29.73
2019-02-22T04:35:08.207Z,28.87
2019-02-22T04:40:13.647Z,30.97
2019-02-22T04:45:19.211Z,30.80
2019-02-22T04:50:24.745Z,29.97
2019-02-22T04:55:30.213Z,30.70
2019-02-22T05:00:35.660Z,28.10
2019-02-22T05:05:41.086Z,29.30
2019-02-22T05:10:46.568Z,29.03
2019-02-22T05:15:52.009Z,31.70
2019-02-22T05:20:57.394Z,30.30
2019-02-22T05:26:02.885Z,30.10
2019-02-22T05:31:08.464Z,28.53
2019-02-22T05:36:13.907Z,30.97
2019-02-22T05:41:19.364Z,31.57
2019-02-22T05:46:24.841Z,28.23
2019-02-22T05:51:30.324Z,31.10
2019-02-22T05:56:35.761Z,31.13
2019-02-22T06:01:41.155Z,31.63
2019-02-22T06:06:46.646Z,27.63
2019-02-22T06:11:52.050Z,32.37
2019-02-22T06:16:57.436Z,32.40
2019-02-22T06:22:03.108Z,29.27
2019-02-22T06:27:08.540Z,31.17
2019-02-22T06:32:13.961Z,29.23
2019-02-22T06:37:19.403Z,31.47
2019-02-22T06:42:24.823Z,31.60
2019-02-22T06:47:30.264Z,29.53
2019-02-22T06:52:35.850Z,31.73
2019-02-22T06:57:41.301Z,30.63
2019-02-22T07:02:46.846Z,31.63
2019-02-22T07:07:52.424Z,29.00
2019-02-22T07:13:01.652Z,31.10
2019-02-22T07:18:07.162Z,29.87
2019-02-22T07:23:12.661Z,28.07
2019-02-22T07:28:18.055Z,30.93
2019-02-22T07:33:23.734Z,28.17
2019-02-22T07:38:29.259Z,32.93
2019-02-22T07:43:34.702Z,31.07
2019-02-22T07:48:40.226Z,34.63
2019-02-22T07:53:45.731Z,35.20
2019-02-22T07:58:51.332Z,36.30
2019-02-22T08:03:56.939Z,37.60
2019-02-22T08:09:02.327Z,37.07
2019-02-22T08:14:08.071Z,36.37
2019-02-22T08:19:14.158Z,38.37
2019-02-22T08:24:19.654Z,39.63
2019-02-22T08:29:27.111Z,39.00
2019-02-22T08:34:32.213Z,40.37
2019-02-22T08:39:37.591Z,37.60
2019-02-22T08:44:43.031Z,41.37
2019-02-22T08:49:48.518Z,41.00
2019-02-22T08:54:54.070Z,40.83
2019-02-22T08:59:59.454Z,40.83
2019-02-22T09:05:05.301Z,40.17
2019-02-22T09:10:11.187Z,42.60
2019-02-22T09:15:16.669Z,40.90
2019-02-22T09:20:22.144Z,40.27
2019-02-22T09:25:27.730Z,36.83
2019-02-22T09:30:33.221Z,39.03
2019-02-22T09:35:38.854Z,36.83
2019-02-22T09:40:44.592Z,36.87
2019-02-22T09:45:50.068Z,34.23
2019-02-22T09:50:55.648Z,36.20
2019-02-22T09:56:01.126Z,31.40
2019-02-22T10:01:06.501Z,32.20
2019-02-22T10:06:11.893Z,32.53
2019-02-22T10:11:17.297Z,30.90
2019-02-22T10:16:22.792Z,30.10
2019-02-22T10:21:28.194Z,29.27
2019-02-22T10:26:33.653Z,27.37
2019-02-22T10:31:39.263Z,28.27
2019-02-22T10:36:45.649Z,25.60
2019-02-22T10:41:51.103Z,26.23
2019-02-22T10:46:56.516Z,25.53
2019-02-22T10:52:01.894Z,23.17
2019-02-22T10:57:07.436Z,20.63
2019-02-22T11:02:12.999Z,20.10
2019-02-22T11:07:18.442Z,17.57
2019-02-22T11:12:23.927Z,18.70
2019-02-22T11:17:29.381Z,19.03
2019-02-22T11:22:34.789Z,20.70
2019-02-22T11:27:40.318Z,20.67
2019-02-22T11:32:45.672Z,19.83
2019-02-22T11:37:51.324Z,17.07
2019-02-22T11:42:56.897Z,13.83
2019-02-22T11:48:09.188Z,9.80
2019-02-22T11:53:09.412Z,9.80
2019-02-22T11:58:14.848Z,9.10
2019-02-22T12:03:24.626Z,8.07
2019-02-22T12:08:27.375Z,7.00
2019-02-22T12:13:32.806Z,8.77
2019-02-22T12:18:38.199Z,8.50
2019-02-22T12:23:43.724Z,8.97
2019-02-22T12:28:49.152Z,8.40
2019-02-22T12:33:54.584Z,8.13
2019-02-22T12:38:59.954Z,8.00
2019-02-22T12:44:05.359Z,7.63
2019-02-22T12:49:10.769Z,7.60
2019-02-22T12:54:16.200Z,6.77
2019-02-22T12:59:21.596Z,5.50
2019-02-22T13:04:26.996Z,6.03
2019-02-22T13:09:36.428Z,7.00
2019-02-22T13:14:39.503Z,5.27
2019-02-22T13:19:44.900Z,5.43
2019-02-22T13:24:50.477Z,5.77
2019-02-22T13:29:55.941Z,5.13
2019-02-22T13:35:01.447Z,4.67
2019-02-22T13:40:08.705Z,4.90
2019-02-22T13:45:25.609Z,4.87
2019-02-22T13:50:21.389Z,4.80
2019-02-22T13:55:26.774Z,4.40
2019-02-22T14:00:32.387Z,4.30
2019-02-22T14:05:37.871Z,3.37
2019-02-22T14:10:44.157Z,3.50
2019-02-22T14:15:49.895Z,3.57
2019-02-22T14:20:55.793Z,3.80
2019-02-22T14:26:01.725Z,3.37
2019-02-22T14:31:07.603Z,3.57
2019-02-22T14:36:13.389Z,3.50
2019-02-22T14:41:18.955Z,3.70
2019-02-22T14:46:26.160Z,4.07
2019-02-22T14:51:32.040Z,4.23
2019-02-22T14:56:37.730Z,3.83
2019-02-22T15:01:43.393Z,3.50
2019-02-22T15:06:48.848Z,4.00
2019-02-22T15:11:54.315Z,3.30
2019-02-22T15:17:09.554Z,3.37
2019-02-22T15:22:15.221Z,3.03
2019-02-22T15:27:20.945Z,3.93
2019-02-22T15:32:27.108Z,3.80
2019-02-22T15:37:32.710Z,4.13
2019-02-22T15:42:40.529Z,3.67
2019-02-22T15:47:45.350Z,3.20
2019-02-22T15:52:51.121Z,3.80
2019-02-22T15:57:57.015Z,3.30
2019-02-22T16:03:02.660Z,3.33
2019-02-22T16:08:08.481Z,3.50
2019-02-22T16:13:14.093Z,4.03
2019-02-22T16:18:19.660Z,3.73
2019-02-22T16:23:25.144Z,4.27
2019-02-22T16:28:31.069Z,4.23
2019-02-22T16:33:36.650Z,4.27
2019-02-22T16:38:42.144Z,4.70
2019-02-22T16:43:47.749Z,4.43
2019-02-22T16:48:53.510Z,4.53
2019-02-22T16:53:58.958Z,4.73
2019-02-22T16:59:04.390Z,4.60
2019-02-22T17:04:10.106Z,5.23
2019-02-22T17:09:16.068Z,4.93
2019-02-22T17:14:21.535Z,5.00
2019-02-22T17:19:36.178Z,5.40
2019-02-22T17:24:41.678Z,4.80
2019-02-22T17:29:47.148Z,5.30
2019-02-22T17:34:52.733Z,5.67
2019-02-22T17:39:58.200Z,5.33
2019-02-22T17:45:03.667Z,5.47
2019-02-22T17:50:09.531Z,5.03
2019-02-22T17:55:15.011Z,5.07
2019-02-22T18:00:21.495Z,5.23
2019-02-22T18:05:26.935Z,5.60
2019-02-22T18:10:37.383Z,5.33
2019-02-22T18:15:46.207Z,5.87
2019-02-22T18:20:54.839Z,6.23
2019-02-22T18:26:04.643Z,6.57
2019-02-22T18:31:14.737Z,7.70
2019-02-22T18:36:24.011Z,8.47
2019-02-22T18:41:30.832Z,8.10
2019-02-22T18:46:38.079Z,7.97
2019-02-22T18:51:45.942Z,7.67
2019-02-22T18:56:55.376Z,7.73
2019-02-22T19:02:01.664Z,8.33
2019-02-22T19:07:07.797Z,9.80
2019-02-22T19:12:13.682Z,10.00
2019-02-22T19:17:29.902Z,11.00
2019-02-22T19:22:26.468Z,11.40
2019-02-22T19:27:33.995Z,11.97
2019-02-22T19:32:39.369Z,11.63
2019-02-22T19:37:44.913Z,12.80
2019-02-22T19:42:51.038Z,11.97
2019-02-22T19:47:56.925Z,11.90
2019-02-22T19:53:02.538Z,12.00
2019-02-22T19:58:08.109Z,12.03
2019-02-22T20:03:13.627Z,12.10
2019-02-22T20:08:19.325Z,11.47
2019-02-22T20:13:24.796Z,10.20
2019-02-22T20:18:30.319Z,11.23
2019-02-22T20:23:35.861Z,11.20
2019-02-22T20:28:41.305Z,11.83
2019-02-22T20:33:47.011Z,11.47
2019-02-22T20:38:52.572Z,11.40
2019-02-22T20:43:58.075Z,10.30
2019-02-22T20:49:03.667Z,10.90
2019-02-22T20:54:09.160Z,10.87
2019-02-22T20:59:14.721Z,10.97
2019-02-22T21:04:20.329Z,11.40
2019-02-22T21:09:25.896Z,11.17
2019-02-22T21:14:31.488Z,10.83
2019-02-22T21:19:37.047Z,11.00
2019-02-22T21:24:42.429Z,11.40
2019-02-22T21:29:47.811Z,10.67
2019-02-22T21:34:53.391Z,11.47
2019-02-22T21:39:58.881Z,10.67
2019-02-22T21:45:04.291Z,10.63
2019-02-22T21:50:12.432Z,11.00
2019-02-22T21:55:17.974Z,11.13
2019-02-22T22:00:23.506Z,11.30
2019-02-22T22:05:29.253Z,11.37
2019-02-22T22:10:34.801Z,11.87
2019-02-22T22:15:40.168Z,11.60
2019-02-22T22:20:45.593Z,10.90
2019-02-22T22:25:50.986Z,11.13
2019-02-22T22:30:56.454Z,11.70
2019-02-22T22:36:01.905Z,12.63
2019-02-22T22:41:07.407Z,11.87
2019-02-22T22:46:12.863Z,12.33
2019-02-22T22:51:18.271Z,11.67
2019-02-22T22:56:23.691Z,11.80
2019-02-22T23:01:30.866Z,11.77
2019-02-22T23:06:36.285Z,12.73
2019-02-22T23:11:41.850Z,11.50
2019-02-22T23:16:47.839Z,12.37
2019-02-22T23:21:53.263Z,13.53
2019-02-22T23:26:58.656Z,12.53
2019-02-22T23:32:04.155Z,12.67
2019-02-22T23:37:09.567Z,13.87
2019-02-22T23:42:14.982Z,13.70
2019-02-22T23:47:20.380Z,13.07
2019-02-22T23:52:25.918Z,12.20
2019-02-22T23:57:31.493Z,11.90
